sensor_id;sensor_type;location;lat;lon;timestamp;P1;durP1;ratioP1;P2;durP2;ratioP2
27957;SDS011;15295;42.658;23.374;2024-03-02T00:00:36;55.78;;;24.98;;
27957;SDS011;15295;42.658;23.374;2024-03-02T00:03:03;53.80;;;27.23;;
27957;SDS011;15295;42.658;23.374;2024-03-02T00:05:29;58.25;;;28.75;;
27957;SDS011;15295;42.658;23.374;2024-03-02T00:07:55;55.25;;;27.23;;
27957;SDS011;15295;42.658;23.374;2024-03-02T00:10:23;54.10;;;25.83;;
27957;SDS011;15295;42.658;23.374;2024-03-02T00:12:54;53.75;;;26.48;;
27957;SDS011;15295;42.658;23.374;2024-03-02T00:20:21;49.60;;;24.75;;
27957;SDS011;15295;42.658;23.374;2024-03-02T00:22:51;45.47;;;24.02;;
27957;SDS011;15295;42.658;23.374;2024-03-02T00:25:16;53.60;;;26.17;;
27957;SDS011;15295;42.658;23.374;2024-03-02T00:27:42;50.47;;;24.85;;
27957;SDS011;15295;42.658;23.374;2024-03-02T00:33:00;52.33;;;25.38;;
27957;SDS011;15295;42.658;23.374;2024-03-02T00:35:25;47.42;;;25.38;;
27957;SDS011;15295;42.658;23.374;2024-03-02T00:37:51;54.45;;;25.42;;
27957;SDS011;15295;42.658;23.374;2024-03-02T00:40:16;49.55;;;24.38;;
27957;SDS011;15295;42.658;23.374;2024-03-02T00:42:42;50.30;;;25.45;;
27957;SDS011;15295;42.658;23.374;2024-03-02T00:45:08;50.78;;;25.40;;
27957;SDS011;15295;42.658;23.374;2024-03-02T00:47:37;44.97;;;23.00;;
27957;SDS011;15295;42.658;23.374;2024-03-02T00:50:05;42.05;;;21.75;;
27957;SDS011;15295;42.658;23.374;2024-03-02T00:52:31;41.10;;;21.48;;
27957;SDS011;15295;42.658;23.374;2024-03-02T00:54:58;40.88;;;21.67;;
27957;SDS011;15295;42.658;23.374;2024-03-02T00:57:24;41.70;;;22.58;;
27957;SDS011;15295;42.658;23.374;2024-03-02T00:59:51;36.63;;;19.55;;
27957;SDS011;15295;42.658;23.374;2024-03-02T01:02:17;44.67;;;22.88;;
27957;SDS011;15295;42.658;23.374;2024-03-02T01:04:45;42.90;;;23.08;;
27957;SDS011;15295;42.658;23.374;2024-03-02T01:07:10;41.00;;;20.95;;
27957;SDS011;15295;42.658;23.374;2024-03-02T01:09:36;40.67;;;22.15;;
27957;SDS011;15295;42.658;23.374;2024-03-02T01:12:02;42.92;;;22.10;;
27957;SDS011;15295;42.658;23.374;2024-03-02T01:14:27;42.67;;;21.65;;
27957;SDS011;15295;42.658;23.374;2024-03-02T01:16:53;44.00;;;23.67;;
27957;SDS011;15295;42.658;23.374;2024-03-02T01:19:19;47.92;;;23.35;;
27957;SDS011;15295;42.658;23.374;2024-03-02T01:21:44;40.95;;;21.80;;
27957;SDS011;15295;42.658;23.374;2024-03-02T01:24:10;42.85;;;22.10;;
27957;SDS011;15295;42.658;23.374;2024-03-02T01:26:35;39.92;;;21.70;;
27957;SDS011;15295;42.658;23.374;2024-03-02T01:29:01;46.55;;;23.50;;
27957;SDS011;15295;42.658;23.374;2024-03-02T01:31:26;44.83;;;22.85;;
27957;SDS011;15295;42.658;23.374;2024-03-02T01:33:52;38.13;;;21.08;;
27957;SDS011;15295;42.658;23.374;2024-03-02T01:36:17;38.72;;;20.38;;
27957;SDS011;15295;42.658;23.374;2024-03-02T01:38:43;35.22;;;18.92;;
27957;SDS011;15295;42.658;23.374;2024-03-02T01:41:09;39.20;;;19.45;;
27957;SDS011;15295;42.658;23.374;2024-03-02T01:43:34;37.60;;;19.77;;
27957;SDS011;15295;42.658;23.374;2024-03-02T01:46:00;39.38;;;20.88;;
27957;SDS011;15295;42.658;23.374;2024-03-02T01:48:25;45.30;;;23.27;;
27957;SDS011;15295;42.658;23.374;2024-03-02T01:50:51;42.42;;;20.60;;
27957;SDS011;15295;42.658;23.374;2024-03-02T01:53:16;44.80;;;24.13;;
27957;SDS011;15295;42.658;23.374;2024-03-02T01:55:42;43.13;;;23.50;;
27957;SDS011;15295;42.658;23.374;2024-03-02T01:58:08;43.92;;;23.90;;
27957;SDS011;15295;42.658;23.374;2024-03-02T02:00:33;42.65;;;21.65;;
27957;SDS011;15295;42.658;23.374;2024-03-02T02:02:59;46.40;;;23.80;;
27957;SDS011;15295;42.658;23.374;2024-03-02T02:05:24;62.00;;;27.42;;
27957;SDS011;15295;42.658;23.374;2024-03-02T02:07:50;51.08;;;27.40;;
27957;SDS011;15295;42.658;23.374;2024-03-02T02:10:15;50.20;;;25.75;;
27957;SDS011;15295;42.658;23.374;2024-03-02T02:12:41;56.85;;;28.25;;
27957;SDS011;15295;42.658;23.374;2024-03-02T02:17:52;55.72;;;28.38;;
27957;SDS011;15295;42.658;23.374;2024-03-02T02:20:18;46.05;;;25.40;;
27957;SDS011;15295;42.658;23.374;2024-03-02T02:25:39;55.03;;;29.20;;
27957;SDS011;15295;42.658;23.374;2024-03-02T02:28:04;55.35;;;28.65;;
27957;SDS011;15295;42.658;23.374;2024-03-02T02:30:30;55.88;;;29.33;;
27957;SDS011;15295;42.658;23.374;2024-03-02T02:32:57;57.17;;;30.48;;
27957;SDS011;15295;42.658;23.374;2024-03-02T02:35:23;56.13;;;29.15;;
27957;SDS011;15295;42.658;23.374;2024-03-02T02:37:49;57.83;;;28.83;;
27957;SDS011;15295;42.658;23.374;2024-03-02T02:40:16;59.40;;;30.55;;
27957;SDS011;15295;42.658;23.374;2024-03-02T02:42:43;57.47;;;30.48;;
27957;SDS011;15295;42.658;23.374;2024-03-02T02:45:09;54.22;;;28.92;;
27957;SDS011;15295;42.658;23.374;2024-03-02T02:47:36;51.15;;;27.23;;
27957;SDS011;15295;42.658;23.374;2024-03-02T02:50:06;54.97;;;28.00;;
27957;SDS011;15295;42.658;23.374;2024-03-02T02:52:33;56.38;;;28.58;;
27957;SDS011;15295;42.658;23.374;2024-03-02T02:55:02;55.10;;;28.67;;
27957;SDS011;15295;42.658;23.374;2024-03-02T02:57:28;55.75;;;28.48;;
27957;SDS011;15295;42.658;23.374;2024-03-02T02:59:56;55.13;;;27.80;;
27957;SDS011;15295;42.658;23.374;2024-03-02T03:02:22;54.92;;;28.67;;
27957;SDS011;15295;42.658;23.374;2024-03-02T03:04:47;57.47;;;28.83;;
27957;SDS011;15295;42.658;23.374;2024-03-02T03:07:13;56.47;;;28.92;;
27957;SDS011;15295;42.658;23.374;2024-03-02T03:09:38;57.47;;;28.67;;
27957;SDS011;15295;42.658;23.374;2024-03-02T03:12:04;54.65;;;28.75;;
27957;SDS011;15295;42.658;23.374;2024-03-02T03:14:30;55.38;;;29.02;;
27957;SDS011;15295;42.658;23.374;2024-03-02T03:16:56;57.35;;;27.38;;
27957;SDS011;15295;42.658;23.374;2024-03-02T03:19:21;52.92;;;28.23;;
27957;SDS011;15295;42.658;23.374;2024-03-02T03:21:46;53.38;;;27.58;;
27957;SDS011;15295;42.658;23.374;2024-03-02T03:24:12;58.25;;;28.75;;
27957;SDS011;15295;42.658;23.374;2024-03-02T03:26:37;59.75;;;28.63;;
27957;SDS011;15295;42.658;23.374;2024-03-02T03:29:03;55.47;;;28.23;;
27957;SDS011;15295;42.658;23.374;2024-03-02T03:31:29;56.15;;;29.48;;
27957;SDS011;15295;42.658;23.374;2024-03-02T03:33:54;58.88;;;29.52;;
27957;SDS011;15295;42.658;23.374;2024-03-02T03:36:20;56.40;;;30.30;;
27957;SDS011;15295;42.658;23.374;2024-03-02T03:38:45;59.58;;;30.50;;
27957;SDS011;15295;42.658;23.374;2024-03-02T03:41:11;58.70;;;31.20;;
27957;SDS011;15295;42.658;23.374;2024-03-02T03:43:36;59.53;;;30.50;;
27957;SDS011;15295;42.658;23.374;2024-03-02T03:46:02;57.45;;;29.25;;
27957;SDS011;15295;42.658;23.374;2024-03-02T03:48:28;59.35;;;30.48;;
27957;SDS011;15295;42.658;23.374;2024-03-02T03:50:55;61.22;;;29.42;;
27957;SDS011;15295;42.658;23.374;2024-03-02T03:53:22;58.28;;;28.48;;
27957;SDS011;15295;42.658;23.374;2024-03-02T03:55:48;52.95;;;28.30;;
27957;SDS011;15295;42.658;23.374;2024-03-02T03:58:16;59.10;;;30.00;;
27957;SDS011;15295;42.658;23.374;2024-03-02T04:00:43;48.58;;;26.85;;
27957;SDS011;15295;42.658;23.374;2024-03-02T04:03:09;53.90;;;27.95;;
27957;SDS011;15295;42.658;23.374;2024-03-02T04:05:34;57.38;;;28.67;;
27957;SDS011;15295;42.658;23.374;2024-03-02T04:08:00;57.05;;;29.05;;
27957;SDS011;15295;42.658;23.374;2024-03-02T04:10:26;58.33;;;29.02;;
27957;SDS011;15295;42.658;23.374;2024-03-02T04:12:52;56.08;;;29.48;;
27957;SDS011;15295;42.658;23.374;2024-03-02T04:15:18;53.20;;;27.33;;
27957;SDS011;15295;42.658;23.374;2024-03-02T04:17:44;54.17;;;28.08;;
27957;SDS011;15295;42.658;23.374;2024-03-02T04:20:09;51.72;;;26.58;;
27957;SDS011;15295;42.658;23.374;2024-03-02T04:22:37;55.15;;;27.00;;
27957;SDS011;15295;42.658;23.374;2024-03-02T04:25:03;53.45;;;26.48;;
27957;SDS011;15295;42.658;23.374;2024-03-02T04:27:30;57.08;;;27.42;;
27957;SDS011;15295;42.658;23.374;2024-03-02T04:29:56;51.17;;;26.20;;
27957;SDS011;15295;42.658;23.374;2024-03-02T04:32:22;51.00;;;27.15;;
27957;SDS011;15295;42.658;23.374;2024-03-02T04:34:47;48.05;;;26.08;;
27957;SDS011;15295;42.658;23.374;2024-03-02T04:37:13;55.28;;;27.52;;
27957;SDS011;15295;42.658;23.374;2024-03-02T04:39:39;53.60;;;26.52;;
27957;SDS011;15295;42.658;23.374;2024-03-02T04:42:05;51.17;;;27.27;;
27957;SDS011;15295;42.658;23.374;2024-03-02T04:44:30;50.10;;;25.83;;
27957;SDS011;15295;42.658;23.374;2024-03-02T04:46:56;52.50;;;26.83;;
27957;SDS011;15295;42.658;23.374;2024-03-02T04:49:21;52.30;;;27.42;;
27957;SDS011;15295;42.658;23.374;2024-03-02T04:51:47;53.28;;;28.17;;
27957;SDS011;15295;42.658;23.374;2024-03-02T04:54:12;57.28;;;27.45;;
27957;SDS011;15295;42.658;23.374;2024-03-02T04:56:39;51.70;;;27.42;;
27957;SDS011;15295;42.658;23.374;2024-03-02T04:59:14;52.75;;;27.20;;
27957;SDS011;15295;42.658;23.374;2024-03-02T05:01:43;57.60;;;26.98;;
27957;SDS011;15295;42.658;23.374;2024-03-02T05:04:09;49.60;;;25.88;;
27957;SDS011;15295;42.658;23.374;2024-03-02T05:06:38;54.47;;;27.10;;
27957;SDS011;15295;42.658;23.374;2024-03-02T05:09:07;48.03;;;25.95;;
27957;SDS011;15295;42.658;23.374;2024-03-02T05:11:33;51.65;;;24.80;;
27957;SDS011;15295;42.658;23.374;2024-03-02T05:14:05;47.72;;;24.42;;
27957;SDS011;15295;42.658;23.374;2024-03-02T05:16:34;50.75;;;25.63;;
27957;SDS011;15295;42.658;23.374;2024-03-02T05:19:01;51.70;;;25.08;;
27957;SDS011;15295;42.658;23.374;2024-03-02T05:21:27;55.67;;;27.00;;
27957;SDS011;15295;42.658;23.374;2024-03-02T05:23:53;51.85;;;26.45;;
27957;SDS011;15295;42.658;23.374;2024-03-02T05:26:18;50.40;;;26.30;;
27957;SDS011;15295;42.658;23.374;2024-03-02T05:28:43;54.70;;;27.08;;
27957;SDS011;15295;42.658;23.374;2024-03-02T05:31:13;52.13;;;25.30;;
27957;SDS011;15295;42.658;23.374;2024-03-02T05:33:40;47.17;;;24.33;;
27957;SDS011;15295;42.658;23.374;2024-03-02T05:36:06;52.45;;;25.65;;
27957;SDS011;15295;42.658;23.374;2024-03-02T05:38:32;61.85;;;29.50;;
27957;SDS011;15295;42.658;23.374;2024-03-02T05:40:59;62.40;;;29.58;;
27957;SDS011;15295;42.658;23.374;2024-03-02T05:43:25;59.90;;;30.27;;
27957;SDS011;15295;42.658;23.374;2024-03-02T05:45:51;59.38;;;28.63;;
27957;SDS011;15295;42.658;23.374;2024-03-02T05:48:16;59.75;;;29.65;;
27957;SDS011;15295;42.658;23.374;2024-03-02T05:50:41;60.60;;;29.27;;
27957;SDS011;15295;42.658;23.374;2024-03-02T05:53:07;55.75;;;28.70;;
27957;SDS011;15295;42.658;23.374;2024-03-02T05:55:32;59.88;;;27.98;;
27957;SDS011;15295;42.658;23.374;2024-03-02T05:57:58;57.47;;;28.73;;
27957;SDS011;15295;42.658;23.374;2024-03-02T06:00:23;53.05;;;28.02;;
27957;SDS011;15295;42.658;23.374;2024-03-02T06:02:49;59.83;;;28.63;;
27957;SDS011;15295;42.658;23.374;2024-03-02T06:05:15;59.58;;;29.20;;
27957;SDS011;15295;42.658;23.374;2024-03-02T06:07:42;55.25;;;28.08;;
27957;SDS011;15295;42.658;23.374;2024-03-02T06:10:08;57.72;;;28.02;;
27957;SDS011;15295;42.658;23.374;2024-03-02T06:12:34;59.78;;;30.20;;
27957;SDS011;15295;42.658;23.374;2024-03-02T06:14:59;64.05;;;31.00;;
27957;SDS011;15295;42.658;23.374;2024-03-02T06:17:25;62.30;;;29.67;;
27957;SDS011;15295;42.658;23.374;2024-03-02T06:19:50;61.67;;;29.98;;
27957;SDS011;15295;42.658;23.374;2024-03-02T06:22:16;62.67;;;30.67;;
27957;SDS011;15295;42.658;23.374;2024-03-02T06:24:42;59.17;;;27.55;;
27957;SDS011;15295;42.658;23.374;2024-03-02T06:27:07;53.55;;;27.83;;
27957;SDS011;15295;42.658;23.374;2024-03-02T06:29:33;53.47;;;27.92;;
27957;SDS011;15295;42.658;23.374;2024-03-02T06:31:59;65.47;;;29.85;;
27957;SDS011;15295;42.658;23.374;2024-03-02T06:34:25;64.13;;;29.00;;
27957;SDS011;15295;42.658;23.374;2024-03-02T06:36:50;55.83;;;26.67;;
27957;SDS011;15295;42.658;23.374;2024-03-02T06:39:16;64.97;;;29.90;;
27957;SDS011;15295;42.658;23.374;2024-03-02T06:41:41;59.53;;;28.13;;
27957;SDS011;15295;42.658;23.374;2024-03-02T06:44:12;59.15;;;29.75;;
27957;SDS011;15295;42.658;23.374;2024-03-02T06:46:38;57.88;;;28.27;;
27957;SDS011;15295;42.658;23.374;2024-03-02T06:49:04;60.33;;;28.40;;
27957;SDS011;15295;42.658;23.374;2024-03-02T06:51:29;64.15;;;31.73;;
27957;SDS011;15295;42.658;23.374;2024-03-02T06:53:55;63.10;;;30.02;;
27957;SDS011;15295;42.658;23.374;2024-03-02T06:56:20;63.97;;;31.92;;
27957;SDS011;15295;42.658;23.374;2024-03-02T06:58:46;69.28;;;32.00;;
27957;SDS011;15295;42.658;23.374;2024-03-02T07:01:12;60.40;;;29.63;;
27957;SDS011;15295;42.658;23.374;2024-03-02T07:03:38;68.30;;;32.03;;
27957;SDS011;15295;42.658;23.374;2024-03-02T07:06:05;60.72;;;31.02;;
27957;SDS011;15295;42.658;23.374;2024-03-02T07:08:30;57.80;;;28.08;;
27957;SDS011;15295;42.658;23.374;2024-03-02T07:10:56;65.50;;;31.80;;
27957;SDS011;15295;42.658;23.374;2024-03-02T07:13:22;55.85;;;26.58;;
27957;SDS011;15295;42.658;23.374;2024-03-02T07:15:50;69.22;;;30.45;;
27957;SDS011;15295;42.658;23.374;2024-03-02T07:18:27;64.45;;;31.02;;
27957;SDS011;15295;42.658;23.374;2024-03-02T07:20:53;61.53;;;29.90;;
27957;SDS011;15295;42.658;23.374;2024-03-02T07:23:18;63.65;;;30.35;;
27957;SDS011;15295;42.658;23.374;2024-03-02T07:25:47;63.70;;;29.75;;
27957;SDS011;15295;42.658;23.374;2024-03-02T07:28:13;63.70;;;29.38;;
27957;SDS011;15295;42.658;23.374;2024-03-02T07:30:39;62.90;;;31.00;;
27957;SDS011;15295;42.658;23.374;2024-03-02T07:33:05;65.03;;;31.30;;
27957;SDS011;15295;42.658;23.374;2024-03-02T07:35:33;63.72;;;31.08;;
27957;SDS011;15295;42.658;23.374;2024-03-02T07:38:02;66.90;;;31.52;;
27957;SDS011;15295;42.658;23.374;2024-03-02T07:43:07;71.78;;;31.98;;
27957;SDS011;15295;42.658;23.374;2024-03-02T07:45:41;69.45;;;31.77;;
27957;SDS011;15295;42.658;23.374;2024-03-02T07:48:06;66.65;;;30.02;;
27957;SDS011;15295;42.658;23.374;2024-03-02T07:50:32;65.53;;;30.65;;
27957;SDS011;15295;42.658;23.374;2024-03-02T07:53:00;69.00;;;31.98;;
27957;SDS011;15295;42.658;23.374;2024-03-02T07:55:29;73.13;;;30.38;;
27957;SDS011;15295;42.658;23.374;2024-03-02T07:57:56;70.93;;;30.85;;
27957;SDS011;15295;42.658;23.374;2024-03-02T08:00:22;65.75;;;31.63;;
27957;SDS011;15295;42.658;23.374;2024-03-02T08:02:48;291.45;;;106.75;;
27957;SDS011;15295;42.658;23.374;2024-03-02T08:05:23;75.07;;;33.33;;
27957;SDS011;15295;42.658;23.374;2024-03-02T08:07:48;67.82;;;31.10;;
27957;SDS011;15295;42.658;23.374;2024-03-02T08:10:17;65.47;;;30.73;;
27957;SDS011;15295;42.658;23.374;2024-03-02T08:12:43;62.15;;;29.40;;
27957;SDS011;15295;42.658;23.374;2024-03-02T08:15:10;61.47;;;29.13;;
27957;SDS011;15295;42.658;23.374;2024-03-02T08:17:35;62.40;;;29.92;;
27957;SDS011;15295;42.658;23.374;2024-03-02T08:20:01;63.15;;;28.35;;
27957;SDS011;15295;42.658;23.374;2024-03-02T08:22:27;60.40;;;28.38;;
27957;SDS011;15295;42.658;23.374;2024-03-02T08:24:52;58.33;;;26.52;;
27957;SDS011;15295;42.658;23.374;2024-03-02T08:27:19;60.58;;;28.23;;
27957;SDS011;15295;42.658;23.374;2024-03-02T08:29:45;57.80;;;28.23;;
27957;SDS011;15295;42.658;23.374;2024-03-02T08:32:10;65.90;;;29.35;;
27957;SDS011;15295;42.658;23.374;2024-03-02T08:34:36;60.75;;;26.27;;
27957;SDS011;15295;42.658;23.374;2024-03-02T08:37:02;58.13;;;27.83;;
27957;SDS011;15295;42.658;23.374;2024-03-02T08:39:28;60.60;;;28.02;;
27957;SDS011;15295;42.658;23.374;2024-03-02T08:41:53;69.05;;;30.08;;
27957;SDS011;15295;42.658;23.374;2024-03-02T08:44:19;56.67;;;27.98;;
27957;SDS011;15295;42.658;23.374;2024-03-02T08:46:45;60.55;;;28.40;;
27957;SDS011;15295;42.658;23.374;2024-03-02T08:49:11;60.22;;;29.95;;
27957;SDS011;15295;42.658;23.374;2024-03-02T08:51:37;64.18;;;29.40;;
27957;SDS011;15295;42.658;23.374;2024-03-02T08:54:03;63.80;;;29.23;;
27957;SDS011;15295;42.658;23.374;2024-03-02T08:56:30;65.20;;;30.67;;
27957;SDS011;15295;42.658;23.374;2024-03-02T08:58:56;71.60;;;32.42;;
27957;SDS011;15295;42.658;23.374;2024-03-02T09:01:21;61.67;;;29.55;;
27957;SDS011;15295;42.658;23.374;2024-03-02T09:03:47;56.53;;;28.25;;
27957;SDS011;15295;42.658;23.374;2024-03-02T09:06:14;57.13;;;28.48;;
27957;SDS011;15295;42.658;23.374;2024-03-02T09:08:41;58.80;;;28.20;;
27957;SDS011;15295;42.658;23.374;2024-03-02T09:11:08;52.35;;;26.83;;
27957;SDS011;15295;42.658;23.374;2024-03-02T09:13:35;53.67;;;27.10;;
27957;SDS011;15295;42.658;23.374;2024-03-02T09:16:01;56.58;;;26.08;;
27957;SDS011;15295;42.658;23.374;2024-03-02T09:18:27;48.20;;;23.08;;
27957;SDS011;15295;42.658;23.374;2024-03-02T09:20:53;49.95;;;24.33;;
27957;SDS011;15295;42.658;23.374;2024-03-02T09:23:18;49.92;;;24.35;;
27957;SDS011;15295;42.658;23.374;2024-03-02T09:25:44;44.22;;;23.50;;
27957;SDS011;15295;42.658;23.374;2024-03-02T09:28:10;44.30;;;23.33;;
27957;SDS011;15295;42.658;23.374;2024-03-02T09:30:35;43.83;;;22.42;;
27957;SDS011;15295;42.658;23.374;2024-03-02T09:33:01;47.92;;;24.23;;
27957;SDS011;15295;42.658;23.374;2024-03-02T09:35:28;45.55;;;23.90;;
27957;SDS011;15295;42.658;23.374;2024-03-02T09:37:53;48.75;;;24.38;;
27957;SDS011;15295;42.658;23.374;2024-03-02T09:40:21;50.30;;;25.35;;
27957;SDS011;15295;42.658;23.374;2024-03-02T09:42:47;54.40;;;26.75;;
27957;SDS011;15295;42.658;23.374;2024-03-02T09:45:18;55.90;;;27.88;;
27957;SDS011;15295;42.658;23.374;2024-03-02T09:47:48;57.10;;;27.98;;
27957;SDS011;15295;42.658;23.374;2024-03-02T09:50:14;57.28;;;29.20;;
27957;SDS011;15295;42.658;23.374;2024-03-02T09:52:40;55.53;;;26.42;;
27957;SDS011;15295;42.658;23.374;2024-03-02T09:55:07;52.10;;;26.48;;
27957;SDS011;15295;42.658;23.374;2024-03-02T09:57:34;49.25;;;25.27;;
27957;SDS011;15295;42.658;23.374;2024-03-02T09:59:59;49.80;;;25.98;;
27957;SDS011;15295;42.658;23.374;2024-03-02T10:02:27;57.00;;;27.88;;
27957;SDS011;15295;42.658;23.374;2024-03-02T10:04:52;62.58;;;29.13;;
27957;SDS011;15295;42.658;23.374;2024-03-02T10:07:18;55.83;;;28.20;;
27957;SDS011;15295;42.658;23.374;2024-03-02T10:09:45;57.03;;;28.08;;
27957;SDS011;15295;42.658;23.374;2024-03-02T10:12:12;54.90;;;28.35;;
27957;SDS011;15295;42.658;23.374;2024-03-02T10:14:39;58.08;;;29.50;;
27957;SDS011;15295;42.658;23.374;2024-03-02T10:17:06;55.60;;;27.95;;
27957;SDS011;15295;42.658;23.374;2024-03-02T10:19:33;52.63;;;26.10;;
27957;SDS011;15295;42.658;23.374;2024-03-02T10:22:00;51.58;;;25.45;;
27957;SDS011;15295;42.658;23.374;2024-03-02T10:24:27;61.00;;;30.88;;
27957;SDS011;15295;42.658;23.374;2024-03-02T10:26:53;57.45;;;28.60;;
27957;SDS011;15295;42.658;23.374;2024-03-02T10:29:19;54.75;;;26.92;;
27957;SDS011;15295;42.658;23.374;2024-03-02T10:31:45;50.60;;;26.23;;
27957;SDS011;15295;42.658;23.374;2024-03-02T10:34:11;43.75;;;22.95;;
27957;SDS011;15295;42.658;23.374;2024-03-02T10:36:42;45.80;;;23.73;;
27957;SDS011;15295;42.658;23.374;2024-03-02T10:39:09;50.10;;;25.33;;
27957;SDS011;15295;42.658;23.374;2024-03-02T10:41:36;52.65;;;26.30;;
27957;SDS011;15295;42.658;23.374;2024-03-02T10:44:03;44.35;;;24.33;;
27957;SDS011;15295;42.658;23.374;2024-03-02T10:46:35;41.30;;;22.60;;
27957;SDS011;15295;42.658;23.374;2024-03-02T10:49:02;41.17;;;21.98;;
27957;SDS011;15295;42.658;23.374;2024-03-02T10:51:29;44.30;;;22.00;;
27957;SDS011;15295;42.658;23.374;2024-03-02T10:53:59;42.22;;;22.92;;
27957;SDS011;15295;42.658;23.374;2024-03-02T11:01:58;39.58;;;21.67;;
27957;SDS011;15295;42.658;23.374;2024-03-02T11:04:28;35.53;;;18.65;;
27957;SDS011;15295;42.658;23.374;2024-03-02T11:07:04;36.65;;;19.35;;
27957;SDS011;15295;42.658;23.374;2024-03-02T11:09:35;36.30;;;19.42;;
27957;SDS011;15295;42.658;23.374;2024-03-02T11:14:50;39.73;;;20.77;;
27957;SDS011;15295;42.658;23.374;2024-03-02T11:17:19;47.90;;;23.50;;
27957;SDS011;15295;42.658;23.374;2024-03-02T11:19:45;46.22;;;25.20;;
27957;SDS011;15295;42.658;23.374;2024-03-02T11:22:12;41.25;;;23.30;;
27957;SDS011;15295;42.658;23.374;2024-03-02T11:24:40;35.22;;;19.08;;
27957;SDS011;15295;42.658;23.374;2024-03-02T11:27:13;35.87;;;18.70;;
27957;SDS011;15295;42.658;23.374;2024-03-02T11:34:45;34.45;;;18.48;;
27957;SDS011;15295;42.658;23.374;2024-03-02T11:37:19;32.33;;;18.42;;
27957;SDS011;15295;42.658;23.374;2024-03-02T11:39:50;34.30;;;18.55;;
27957;SDS011;15295;42.658;23.374;2024-03-02T11:42:16;30.98;;;17.45;;
27957;SDS011;15295;42.658;23.374;2024-03-02T11:44:43;37.75;;;19.73;;
27957;SDS011;15295;42.658;23.374;2024-03-02T11:47:11;31.77;;;16.73;;
27957;SDS011;15295;42.658;23.374;2024-03-02T11:52:11;33.67;;;17.73;;
27957;SDS011;15295;42.658;23.374;2024-03-02T11:54:38;32.58;;;17.75;;
27957;SDS011;15295;42.658;23.374;2024-03-02T11:57:07;32.38;;;18.30;;
27957;SDS011;15295;42.658;23.374;2024-03-02T11:59:33;33.17;;;19.65;;
27957;SDS011;15295;42.658;23.374;2024-03-02T12:01:59;31.90;;;17.90;;
27957;SDS011;15295;42.658;23.374;2024-03-02T12:04:25;28.85;;;16.70;;
27957;SDS011;15295;42.658;23.374;2024-03-02T12:06:57;30.08;;;16.50;;
27957;SDS011;15295;42.658;23.374;2024-03-02T12:09:27;29.75;;;16.75;;
27957;SDS011;15295;42.658;23.374;2024-03-02T12:12:06;27.15;;;14.77;;
27957;SDS011;15295;42.658;23.374;2024-03-02T12:14:35;27.63;;;15.27;;
27957;SDS011;15295;42.658;23.374;2024-03-02T12:17:02;25.88;;;15.30;;
27957;SDS011;15295;42.658;23.374;2024-03-02T12:19:28;24.92;;;14.20;;
27957;SDS011;15295;42.658;23.374;2024-03-02T12:21:57;26.30;;;14.43;;
27957;SDS011;15295;42.658;23.374;2024-03-02T12:24:24;22.95;;;13.48;;
27957;SDS011;15295;42.658;23.374;2024-03-02T12:26:54;27.23;;;14.90;;
27957;SDS011;15295;42.658;23.374;2024-03-02T12:29:56;25.58;;;15.43;;
27957;SDS011;15295;42.658;23.374;2024-03-02T12:32:25;28.90;;;15.88;;
27957;SDS011;15295;42.658;23.374;2024-03-02T12:34:52;27.63;;;15.60;;
27957;SDS011;15295;42.658;23.374;2024-03-02T12:37:18;30.95;;;17.33;;
27957;SDS011;15295;42.658;23.374;2024-03-02T12:39:46;27.58;;;16.08;;
27957;SDS011;15295;42.658;23.374;2024-03-02T12:42:12;27.55;;;15.30;;
27957;SDS011;15295;42.658;23.374;2024-03-02T12:44:37;25.98;;;15.18;;
27957;SDS011;15295;42.658;23.374;2024-03-02T12:47:04;30.55;;;16.23;;
27957;SDS011;15295;42.658;23.374;2024-03-02T12:49:30;28.85;;;16.02;;
27957;SDS011;15295;42.658;23.374;2024-03-02T12:51:57;25.08;;;15.00;;
27957;SDS011;15295;42.658;23.374;2024-03-02T12:54:23;25.55;;;14.85;;
27957;SDS011;15295;42.658;23.374;2024-03-02T12:56:50;25.17;;;14.48;;
27957;SDS011;15295;42.658;23.374;2024-03-02T12:59:23;30.63;;;17.00;;
27957;SDS011;15295;42.658;23.374;2024-03-02T13:01:52;27.20;;;14.88;;
27957;SDS011;15295;42.658;23.374;2024-03-02T13:04:21;26.75;;;15.60;;
27957;SDS011;15295;42.658;23.374;2024-03-02T13:06:51;24.20;;;14.63;;
27957;SDS011;15295;42.658;23.374;2024-03-02T13:09:18;24.88;;;14.63;;
27957;SDS011;15295;42.658;23.374;2024-03-02T13:11:44;26.92;;;15.43;;
27957;SDS011;15295;42.658;23.374;2024-03-02T13:14:10;24.75;;;14.85;;
27957;SDS011;15295;42.658;23.374;2024-03-02T13:16:39;29.88;;;16.73;;
27957;SDS011;15295;42.658;23.374;2024-03-02T13:19:09;27.15;;;15.93;;
27957;SDS011;15295;42.658;23.374;2024-03-02T13:21:36;25.98;;;15.23;;
27957;SDS011;15295;42.658;23.374;2024-03-02T13:24:03;36.35;;;22.20;;
27957;SDS011;15295;42.658;23.374;2024-03-02T13:26:29;30.05;;;16.40;;
27957;SDS011;15295;42.658;23.374;2024-03-02T13:28:55;30.10;;;15.98;;
27957;SDS011;15295;42.658;23.374;2024-03-02T13:31:21;30.38;;;16.83;;
27957;SDS011;15295;42.658;23.374;2024-03-02T13:33:46;24.00;;;14.85;;
27957;SDS011;15295;42.658;23.374;2024-03-02T13:36:12;25.85;;;15.50;;
27957;SDS011;15295;42.658;23.374;2024-03-02T13:38:38;26.40;;;15.02;;
27957;SDS011;15295;42.658;23.374;2024-03-02T13:41:03;32.40;;;17.33;;
27957;SDS011;15295;42.658;23.374;2024-03-02T13:43:28;31.88;;;18.00;;
27957;SDS011;15295;42.658;23.374;2024-03-02T13:45:57;26.80;;;15.77;;
27957;SDS011;15295;42.658;23.374;2024-03-02T13:48:23;23.63;;;14.50;;
27957;SDS011;15295;42.658;23.374;2024-03-02T13:50:51;29.35;;;17.45;;
27957;SDS011;15295;42.658;23.374;2024-03-02T13:53:18;29.85;;;18.45;;
27957;SDS011;15295;42.658;23.374;2024-03-02T13:55:47;29.30;;;17.20;;
27957;SDS011;15295;42.658;23.374;2024-03-02T13:58:12;27.10;;;16.63;;
27957;SDS011;15295;42.658;23.374;2024-03-02T14:00:39;29.00;;;16.75;;
27957;SDS011;15295;42.658;23.374;2024-03-02T14:03:08;29.15;;;17.20;;
27957;SDS011;15295;42.658;23.374;2024-03-02T14:05:33;29.05;;;17.15;;
27957;SDS011;15295;42.658;23.374;2024-03-02T14:07:59;28.38;;;16.80;;
27957;SDS011;15295;42.658;23.374;2024-03-02T14:10:25;30.05;;;16.58;;
27957;SDS011;15295;42.658;23.374;2024-03-02T14:12:52;29.35;;;16.98;;
27957;SDS011;15295;42.658;23.374;2024-03-02T14:15:18;26.50;;;16.58;;
27957;SDS011;15295;42.658;23.374;2024-03-02T14:17:43;30.60;;;18.70;;
27957;SDS011;15295;42.658;23.374;2024-03-02T14:20:11;29.38;;;17.40;;
27957;SDS011;15295;42.658;23.374;2024-03-02T14:22:38;31.48;;;17.90;;
27957;SDS011;15295;42.658;23.374;2024-03-02T14:25:04;31.13;;;18.63;;
27957;SDS011;15295;42.658;23.374;2024-03-02T14:27:30;33.95;;;19.70;;
27957;SDS011;15295;42.658;23.374;2024-03-02T14:29:56;32.67;;;18.75;;
27957;SDS011;15295;42.658;23.374;2024-03-02T14:32:21;38.90;;;21.98;;
27957;SDS011;15295;42.658;23.374;2024-03-02T14:34:47;37.85;;;21.08;;
27957;SDS011;15295;42.658;23.374;2024-03-02T14:37:13;37.90;;;22.42;;